Time;durP1;ratioP1;P1;durP2;ratioP2;P2;SDS_P1;SDS_P2;PMS_P1;PMS_P2;Temp;Humidity;BMP_temperature;BMP_pressure;BME280_temperature;BME280_humidity;BME280_pressure;Samples;Min_cycle;Max_cycle;Signal;HPM_P1;HPM_P2
2023/09/05 00:02:09;;;;;;;0.00;0.00;;;;;;;;;;4959469;28;20039;-70
2023/09/05 00:04:37;;;;;;;5.07;0.30;;;;;;;;;;4960580;28;20055;-71
2023/09/05 00:07:05;;;;;;;0.00;0.00;;;;;;;;;;4960923;28;20058;-69
2023/09/05 00:09:33;;;;;;;0.10;0.10;;;;;;;;;;4959746;28;20050;-71
2023/09/05 00:12:01;;;;;;;0.10;0.10;;;;;;;;;;4957757;28;20057;-70
2023/09/05 00:14:28;;;;;;;0.00;0.00;;;;;;;;;;4959620;28;20054;-70
2023/09/05 00:16:56;;;;;;;0.13;0.13;;;;;;;;;;4957916;28;20548;-70
2023/09/05 00:19:23;;;;;;;0.03;0.03;;;;;;;;;;4955219;28;20046;-72
2023/09/05 00:21:51;;;;;;;0.20;0.20;;;;;;;;;;4961402;28;20043;-72
2023/09/05 00:24:31;;;;;;;12.18;11.50;;;;;;;;;;4958438;28;20050;-70
2023/09/05 00:27:00;;;;;;;0.00;0.00;;;;;;;;;;4955122;28;20043;-70
2023/09/05 00:29:29;;;;;;;0.00;0.00;;;;;;;;;;4961524;28;20062;-70
2023/09/05 00:31:59;;;;;;;0.00;0.00;;;;;;;;;;4942047;28;20054;-70
2023/09/05 00:34:27;;;;;;;0.05;0.05;;;;;;;;;;4955685;28;20059;-70
2023/09/05 00:36:55;;;;;;;3.10;1.60;;;;;;;;;;4944111;28;20046;-70
2023/09/05 00:39:22;;;;;;;0.00;0.00;;;;;;;;;;4942395;28;20057;-71
2023/09/05 00:41:50;;;;;;;0.00;0.00;;;;;;;;;;4940247;28;20051;-70
2023/09/05 00:44:18;;;;;;;0.10;0.10;;;;;;;;;;4935784;29;20066;-70
2023/09/05 00:46:46;;;;;;;0.40;0.15;;;;;;;;;;4959629;28;20058;-70
2023/09/05 00:49:17;;;;;;;0.00;0.00;;;;;;;;;;4962007;28;20065;-70
2023/09/05 00:51:50;;;;;;;0.00;0.00;;;;;;;;;;4952686;28;20050;-70
2023/09/05 00:54:18;;;;;;;;;;;;;;;;;;4935285;28;20413;-70
2023/09/05 00:59:48;;;;;;;0.55;0.55;;;;;;;;;;4936385;28;20469;-81
2023/09/05 01:02:16;;;;;;;2.80;2.70;;;;;;;;;;4946333;28;20055;-83
2023/09/05 01:04:43;;;;;;;0.70;0.70;;;;;;;;;;4949169;29;20104;-84
2023/09/05 01:07:30;;;;;;;9.00;8.35;;;;;;;;;;4947795;28;20801;-83
2023/09/05 01:10:02;;;;;;;22.67;21.33;;;;;;;;;;4940901;29;20044;-84
2023/09/05 01:12:30;;;;;;;;;;;;;;;;;;4940556;29;20134;-84
2023/09/05 01:14:57;;;;;;;0.00;0.00;;;;;;;;;;4943767;29;19927;-84
2023/09/05 01:17:24;;;;;;;0.00;0.00;;;;;;;;;;4950073;29;20125;-84
2023/09/05 01:19:55;;;;;;;0.00;0.00;;;;;;;;;;4942260;29;20509;-83
2023/09/05 01:22:28;;;;;;;0.30;0.30;;;;;;;;;;4940953;29;20081;-83
2023/09/05 01:24:56;;;;;;;0.10;0.10;;;;;;;;;;4945538;29;20055;-83
2023/09/05 01:27:24;;;;;;;0.13;0.13;;;;;;;;;;4941861;29;20040;-81
2023/09/05 01:29:55;;;;;;;0.00;0.00;;;;;;;;;;4947809;29;20062;-83
2023/09/05 01:32:23;;;;;;;0.08;0.08;;;;;;;;;;4957098;28;20047;-83
2023/09/05 01:34:50;;;;;;;0.10;0.10;;;;;;;;;;4951369;28;20055;-83
2023/09/05 01:37:18;;;;;;;0.22;0.22;;;;;;;;;;4946152;28;20411;-82
2023/09/05 01:39:46;;;;;;;20.90;19.75;;;;;;;;;;4949131;29;20043;-83
2023/09/05 01:42:13;;;;;;;0.35;0.35;;;;;;;;;;4947454;29;20040;-82
2023/09/05 01:44:40;;;;;;;0.00;0.00;;;;;;;;;;4947479;29;20130;-82
2023/09/05 01:47:09;;;;;;;0.10;0.10;;;;;;;;;;4948955;29;20057;-82
2023/09/05 01:49:37;;;;;;;0.00;0.00;;;;;;;;;;4964605;28;20062;-82
2023/09/05 01:52:04;;;;;;;0.00;0.00;;;;;;;;;;4948372;29;20055;-83
2023/09/05 01:54:31;;;;;;;0.03;0.03;;;;;;;;;;4951014;28;20602;-83
2023/09/05 01:56:59;;;;;;;0.00;0.00;;;;;;;;;;4952330;29;20051;-83
2023/09/05 01:59:26;;;;;;;0.00;0.00;;;;;;;;;;4948995;29;20062;-83
2023/09/05 02:01:54;;;;;;;0.00;0.00;;;;;;;;;;4942929;29;20040;-83
2023/09/05 02:04:21;;;;;;;0.00;0.00;;;;;;;;;;4965268;28;20457;-83
2023/09/05 02:06:49;;;;;;;0.03;0.03;;;;;;;;;;4944874;29;20049;-83
2023/09/05 02:09:16;;;;;;;0.20;0.20;;;;;;;;;;4942710;29;20043;-82
2023/09/05 02:11:43;;;;;;;0.52;0.52;;;;;;;;;;4947273;29;20051;-83
2023/09/05 02:14:11;;;;;;;0.00;0.00;;;;;;;;;;4951059;29;20418;-84
2023/09/05 02:16:38;;;;;;;0.00;0.00;;;;;;;;;;4952510;29;20047;-82
2023/09/05 02:19:06;;;;;;;0.00;0.00;;;;;;;;;;4948290;29;20039;-84
2023/09/05 02:21:33;;;;;;;0.00;0.00;;;;;;;;;;4945288;28;20391;-83
2023/09/05 02:24:00;;;;;;;0.00;0.00;;;;;;;;;;4951817;29;20058;-84
2023/09/05 02:26:28;;;;;;;0.00;0.00;;;;;;;;;;4951841;29;20129;-83
2023/09/05 02:28:58;;;;;;;0.00;0.00;;;;;;;;;;4944020;29;20052;-82
2023/09/05 02:31:25;;;;;;;0.00;0.00;;;;;;;;;;4947040;28;20055;-82
2023/09/05 02:33:52;;;;;;;0.00;0.00;;;;;;;;;;4948669;28;20058;-84
2023/09/05 02:36:21;;;;;;;0.00;0.00;;;;;;;;;;4945111;28;20064;-84
2023/09/05 02:38:48;;;;;;;0.10;0.10;;;;;;;;;;4961293;28;20552;-84
2023/09/05 02:41:16;;;;;;;0.47;0.47;;;;;;;;;;4950808;29;20043;-83
2023/09/05 02:43:46;;;;;;;0.17;0.17;;;;;;;;;;4946730;29;20055;-83
2023/09/05 02:46:14;;;;;;;1.55;1.55;;;;;;;;;;4945306;29;20047;-84
2023/09/05 02:48:42;;;;;;;78.22;73.57;;;;;;;;;;4941872;29;20051;-83
2023/09/05 02:51:14;;;;;;;46.55;43.90;;;;;;;;;;4946279;29;20050;-84
2023/09/05 02:53:41;;;;;;;17.70;16.80;;;;;;;;;;4947506;29;20058;-83
2023/09/05 02:56:08;;;;;;;2.33;2.25;;;;;;;;;;4951546;28;20421;-81
2023/09/05 02:58:36;;;;;;;0.10;0.10;;;;;;;;;;4942732;29;20130;-84
2023/09/05 03:01:10;;;;;;;0.28;0.28;;;;;;;;;;4938909;29;20122;-83
2023/09/05 03:03:38;;;;;;;0.75;0.68;;;;;;;;;;4964636;28;20521;-83
2023/09/05 03:06:15;;;;;;;0.22;0.22;;;;;;;;;;4946089;29;20434;-83
2023/09/05 03:08:47;;;;;;;0.00;0.00;;;;;;;;;;4944561;28;20067;-82
2023/09/05 03:11:18;;;;;;;0.77;0.25;;;;;;;;;;4942171;28;20083;-84
2023/09/05 03:13:46;;;;;;;0.90;0.50;;;;;;;;;;4961243;28;20043;-84
2023/09/05 03:16:14;;;;;;;0.52;0.43;;;;;;;;;;4949654;29;20529;-84
2023/09/05 03:18:46;;;;;;;0.47;0.47;;;;;;;;;;4947266;28;20048;-83
2023/09/05 03:21:14;;;;;;;68.22;64.03;;;;;;;;;;4946662;29;20098;-83
2023/09/05 03:23:41;;;;;;;0.50;0.50;;;;;;;;;;4945449;29;20082;-83
2023/09/05 03:26:09;;;;;;;0.20;0.20;;;;;;;;;;4943389;29;20079;-83
2023/09/05 03:28:40;;;;;;;0.05;0.05;;;;;;;;;;4945158;29;20648;-84
2023/09/05 03:31:10;;;;;;;0.30;0.30;;;;;;;;;;4944455;29;20220;-83
2023/09/05 03:33:37;;;;;;;0.30;0.30;;;;;;;;;;4947295;29;20510;-82
2023/09/05 03:36:05;;;;;;;0.10;0.10;;;;;;;;;;4947428;29;20043;-83
2023/09/05 03:38:33;;;;;;;0.30;0.30;;;;;;;;;;4945575;28;20478;-82
2023/09/05 03:41:00;;;;;;;0.40;0.40;;;;;;;;;;4943682;29;20053;-83
2023/09/05 03:43:28;;;;;;;0.30;0.28;;;;;;;;;;4950010;29;20050;-84
2023/09/05 03:45:55;;;;;;;0.00;0.00;;;;;;;;;;4944690;28;20048;-83
2023/09/05 03:48:23;;;;;;;0.20;0.20;;;;;;;;;;4945480;29;20051;-83
2023/09/05 03:50:50;;;;;;;0.20;0.20;;;;;;;;;;4948568;28;20441;-82
2023/09/05 03:53:17;;;;;;;0.28;0.28;;;;;;;;;;4964305;28;20051;-83
2023/09/05 03:55:45;;;;;;;0.10;0.10;;;;;;;;;;4948112;28;20126;-83
2023/09/05 03:58:12;;;;;;;0.00;0.00;;;;;;;;;;4950134;28;20039;-81
2023/09/05 04:00:40;;;;;;;0.00;0.00;;;;;;;;;;4945216;29;20045;-83
2023/09/05 04:03:11;;;;;;;0.05;0.05;;;;;;;;;;4943614;28;20075;-83
2023/09/05 04:05:38;;;;;;;0.25;0.25;;;;;;;;;;4959186;28;20050;-83
2023/09/05 04:08:09;;;;;;;0.45;0.45;;;;;;;;;;4950586;29;20055;-82
2023/09/05 04:10:38;;;;;;;;;;;;;;;;;;4961651;28;20648;-83
2023/09/05 04:13:05;;;;;;;0.00;0.00;;;;;;;;;;4949299;28;20653;-84
2023/09/05 04:15:32;;;;;;;0.45;0.45;;;;;;;;;;4947022;28;20074;-82
2023/09/05 04:18:00;;;;;;;37.45;0.90;;;;;;;;;;4946635;29;20112;-83
2023/09/05 04:20:29;;;;;;;0.32;0.32;;;;;;;;;;4945754;28;21984;-84
2023/09/05 04:22:56;;;;;;;0.08;0.08;;;;;;;;;;4946984;29;20133;-83
2023/09/05 04:25:26;;;;;;;0.38;0.25;;;;;;;;;;4950959;28;20051;-84
2023/09/05 04:27:53;;;;;;;0.40;0.40;;;;;;;;;;4947617;28;20134;-83
2023/09/05 04:30:20;;;;;;;0.32;0.32;;;;;;;;;;4947838;29;20051;-84
2023/09/05 04:32:49;;;;;;;90.40;83.82;;;;;;;;;;4947512;29;20078;-83
2023/09/05 04:35:17;;;;;;;50.47;47.38;;;;;;;;;;4932557;29;20055;-83
2023/09/05 04:37:45;;;;;;;1.15;1.15;;;;;;;;;;4947425;28;20055;-82
2023/09/05 04:40:12;;;;;;;0.05;0.05;;;;;;;;;;4952065;29;20051;-83
2023/09/05 04:42:40;;;;;;;6.32;5.47;;;;;;;;;;4947280;29;20050;-83
2023/09/05 04:45:09;;;;;;;15.75;14.30;;;;;;;;;;4949255;29;20073;-83
2023/09/05 04:47:40;;;;;;;0.93;0.70;;;;;;;;;;4948681;28;20089;-83
2023/09/05 04:50:11;;;;;;;0.03;0.03;;;;;;;;;;4943572;29;20819;-83
2023/09/05 04:52:38;;;;;;;0.00;0.00;;;;;;;;;;4950101;29;20126;-82
2023/09/05 04:55:05;;;;;;;0.03;0.03;;;;;;;;;;4945456;29;20057;-83
2023/09/05 04:57:33;;;;;;;0.40;0.40;;;;;;;;;;4945209;28;20623;-82
2023/09/05 05:00:00;;;;;;;0.00;0.00;;;;;;;;;;4947385;29;20083;-82
2023/09/05 05:02:33;;;;;;;9.38;8.77;;;;;;;;;;4952761;28;20051;-82
2023/09/05 05:05:00;;;;;;;10.77;9.90;;;;;;;;;;4948861;29;20047;-83
2023/09/05 05:07:28;;;;;;;0.00;0.00;;;;;;;;;;4941745;29;20139;-84
2023/09/05 05:09:55;;;;;;;8.43;7.68;;;;;;;;;;4939086;29;20052;-84
2023/09/05 05:12:24;;;;;;;9.00;8.30;;;;;;;;;;4946370;29;20308;-82
2023/09/05 05:14:51;;;;;;;0.00;0.00;;;;;;;;;;4947245;28;20039;-81
2023/09/05 05:17:21;;;;;;;0.70;0.70;;;;;;;;;;4945194;29;20054;-81
2023/09/05 05:19:48;;;;;;;0.10;0.10;;;;;;;;;;4948812;28;20039;-83
2023/09/05 05:22:16;;;;;;;28.27;25.73;;;;;;;;;;4942193;28;20047;-83
2023/09/05 05:24:43;;;;;;;1.98;1.88;;;;;;;;;;4950926;29;20089;-83
2023/09/05 05:27:10;;;;;;;0.00;0.00;;;;;;;;;;4944381;28;20101;-82
2023/09/05 05:29:38;;;;;;;0.10;0.10;;;;;;;;;;4953853;28;20728;-84
2023/09/05 05:32:05;;;;;;;0.20;0.20;;;;;;;;;;4947678;29;20130;-84
2023/09/05 05:34:33;;;;;;;12.68;1.23;;;;;;;;;;4945080;28;20421;-83
2023/09/05 05:37:01;;;;;;;0.50;0.50;;;;;;;;;;4947120;29;20126;-83
2023/09/05 05:39:28;;;;;;;0.00;0.00;;;;;;;;;;4949657;28;21047;-84
2023/09/05 05:41:55;;;;;;;0.32;0.22;;;;;;;;;;4941212;29;20146;-84
2023/09/05 05:44:23;;;;;;;0.22;0.22;;;;;;;;;;4944269;29;20042;-84
2023/09/05 05:46:50;;;;;;;0.20;0.20;;;;;;;;;;4963086;28;20061;-83
2023/09/05 05:49:17;;;;;;;0.15;0.15;;;;;;;;;;4944253;28;20411;-83
2023/09/05 05:51:45;;;;;;;0.90;0.90;;;;;;;;;;4942653;29;20071;-84
2023/09/05 05:54:12;;;;;;;0.00;0.00;;;;;;;;;;4947035;29;20062;-85
2023/09/05 05:56:39;;;;;;;0.10;0.10;;;;;;;;;;4944336;29;20126;-84
2023/09/05 05:59:07;;;;;;;13.95;12.35;;;;;;;;;;4940443;29;20161;-84
2023/09/05 06:01:34;;;;;;;2.80;2.65;;;;;;;;;;4945580;29;20077;-84
2023/09/05 06:04:02;;;;;;;1.17;1.17;;;;;;;;;;4950082;29;20055;-85
2023/09/05 06:06:29;;;;;;;0.50;0.50;;;;;;;;;;4946802;29;20054;-84
2023/09/05 06:08:57;;;;;;;13.13;12.15;;;;;;;;;;4966193;28;20043;-84
2023/09/05 06:11:24;;;;;;;0.10;0.10;;;;;;;;;;4945726;28;20533;-81
2023/09/05 06:13:52;;;;;;;1.67;1.65;;;;;;;;;;4941776;29;20044;-84
2023/09/05 06:16:20;;;;;;;0.10;0.10;;;;;;;;;;4946840;29;20524;-84
2023/09/05 06:18:47;;;;;;;0.03;0.03;;;;;;;;;;4950067;29;20511;-84
2023/09/05 06:21:15;;;;;;;5.45;4.97;;;;;;;;;;4962487;28;20047;-83
2023/09/05 06:23:43;;;;;;;8.32;7.60;;;;;;;;;;4972087;28;20091;-82
2023/09/05 06:26:10;;;;;;;0.47;0.28;;;;;;;;;;4966813;28;20214;-82
2023/09/05 06:28:37;;;;;;;0.00;0.00;;;;;;;;;;4969685;28;20046;-82
2023/09/05 06:31:05;;;;;;;1.65;0.28;;;;;;;;;;4975705;28;20066;-82
2023/09/05 06:33:33;;;;;;;0.20;0.20;;;;;;;;;;4959529;29;20039;-83
2023/09/05 06:36:07;;;;;;;3.25;3.15;;;;;;;;;;4950465;29;20598;-85
2023/09/05 06:38:35;;;;;;;0.00;0.00;;;;;;;;;;4949764;29;20043;-84
2023/09/05 06:41:09;;;;;;;0.47;0.47;;;;;;;;;;4946864;29;20047;-83
2023/09/05 06:43:37;;;;;;;0.00;0.00;;;;;;;;;;4946955;28;20291;-84
2023/09/05 06:46:05;;;;;;;6.40;5.97;;;;;;;;;;4940307;29;20078;-84
2023/09/05 06:48:34;;;;;;;0.00;0.00;;;;;;;;;;4951028;29;20421;-84
2023/09/05 06:51:01;;;;;;;0.08;0.08;;;;;;;;;;4949032;29;20078;-84
2023/09/05 06:53:29;;;;;;;0.00;0.00;;;;;;;;;;4950201;29;20061;-83
2023/09/05 06:55:56;;;;;;;0.10;0.10;;;;;;;;;;4936486;29;20057;-84
2023/09/05 06:58:24;;;;;;;0.10;0.10;;;;;;;;;;4944428;29;20066;-83
2023/09/05 07:00:56;;;;;;;2.08;1.98;;;;;;;;;;4946410;29;20064;-84
2023/09/05 07:03:26;;;;;;;7.07;6.70;;;;;;;;;;4943339;29;20050;-84
2023/09/05 07:05:54;;;;;;;2.08;1.65;;;;;;;;;;4949769;29;20507;-83
2023/09/05 07:08:33;;;;;;;0.10;0.10;;;;;;;;;;4956942;29;20535;-84
2023/09/05 07:11:01;;;;;;;6.75;6.40;;;;;;;;;;4949819;28;20058;-84
2023/09/05 07:13:28;;;;;;;0.10;0.10;;;;;;;;;;4954098;28;20106;-83
2023/09/05 07:15:57;;;;;;;6.47;6.07;;;;;;;;;;4936916;29;20056;-83
2023/09/05 07:18:25;;;;;;;6.78;6.40;;;;;;;;;;4946052;28;20111;-84
2023/09/05 07:20:53;;;;;;;0.10;0.10;;;;;;;;;;4945266;29;20505;-84
2023/09/05 07:23:20;;;;;;;0.15;0.15;;;;;;;;;;4953998;28;20172;-85
2023/09/05 07:25:49;;;;;;;2.45;2.35;;;;;;;;;;4954131;29;20075;-84
2023/09/05 07:28:19;;;;;;;10.43;9.75;;;;;;;;;;4953581;28;20509;-84
2023/09/05 07:30:46;;;;;;;0.00;0.00;;;;;;;;;;4953268;29;20043;-84
2023/09/05 07:33:16;;;;;;;0.05;0.05;;;;;;;;;;4954032;29;20059;-84
2023/09/05 07:35:44;;;;;;;0.10;0.10;;;;;;;;;;4954887;29;20047;-83
2023/09/05 07:38:12;;;;;;;1.98;1.00;;;;;;;;;;4951806;28;20036;-83
2023/09/05 07:40:40;;;;;;;0.00;0.00;;;;;;;;;;4949823;29;20054;-84
2023/09/05 07:43:08;;;;;;;0.00;0.00;;;;;;;;;;4954309;29;20043;-84
2023/09/05 07:45:35;;;;;;;0.00;0.00;;;;;;;;;;4954906;29;20078;-84
2023/09/05 07:48:03;;;;;;;0.10;0.10;;;;;;;;;;4965852;28;20057;-84
2023/09/05 07:50:30;;;;;;;0.25;0.20;;;;;;;;;;4953870;29;20231;-84
2023/09/05 07:52:57;;;;;;;0.10;0.10;;;;;;;;;;4953727;29;20055;-83
2023/09/05 07:55:25;;;;;;;0.10;0.10;;;;;;;;;;4953683;29;20103;-84
2023/09/05 07:57:52;;;;;;;0.45;0.45;;;;;;;;;;4952383;28;20082;-85
2023/09/05 08:00:20;;;;;;;0.00;0.00;;;;;;;;;;4953096;29;20548;-83
2023/09/05 08:02:47;;;;;;;0.52;0.20;;;;;;;;;;4954971;28;20126;-85
2023/09/05 08:05:15;;;;;;;8.05;7.30;;;;;;;;;;4973912;28;20568;-85
2023/09/05 08:07:42;;;;;;;0.10;0.10;;;;;;;;;;4952407;29;20138;-85
2023/09/05 08:10:10;;;;;;;0.08;0.08;;;;;;;;;;4953537;29;20102;-85
2023/09/05 08:12:37;;;;;;;0.10;0.10;;;;;;;;;;4953318;28;20074;-84
2023/09/05 08:15:06;;;;;;;0.10;0.10;;;;;;;;;;4946140;29;20531;-85
2023/09/05 08:17:33;;;;;;;0.75;0.75;;;;;;;;;;4953662;29;20574;-85
2023/09/05 08:20:00;;;;;;;2.38;1.15;;;;;;;;;;4953990;29;20106;-85
2023/09/05 08:22:28;;;;;;;0.55;0.55;;;;;;;;;;4954374;28;20481;-84
2023/09/05 08:24:55;;;;;;;2.80;2.63;;;;;;;;;;4944950;28;20154;-85
2023/09/05 08:27:28;;;;;;;0.10;0.10;;;;;;;;;;4952307;29;20047;-85
2023/09/05 08:29:57;;;;;;;0.05;0.05;;;;;;;;;;4959756;28;20063;-85
2023/09/05 08:32:24;;;;;;;2.83;2.72;;;;;;;;;;4945966;29;20051;-86
2023/09/05 08:34:52;;;;;;;0.10;0.10;;;;;;;;;;4969197;28;20062;-85
2023/09/05 08:37:20;;;;;;;96.28;88.07;;;;;;;;;;4951261;29;20143;-85
2023/09/05 08:39:48;;;;;;;1.33;1.23;;;;;;;;;;4960476;28;20047;-86
2023/09/05 08:42:16;;;;;;;1.13;0.85;;;;;;;;;;4951129;29;20051;-85
2023/09/05 08:44:43;;;;;;;5.75;5.20;;;;;;;;;;4952165;28;20581;-87
2023/09/05 08:47:11;;;;;;;0.68;0.63;;;;;;;;;;4943741;28;20062;-86
2023/09/05 08:49:38;;;;;;;1.13;1.08;;;;;;;;;;4952264;29;20414;-85
2023/09/05 08:52:06;;;;;;;0.13;0.13;;;;;;;;;;4952339;28;20055;-87
2023/09/05 08:54:34;;;;;;;54.38;51.08;;;;;;;;;;4952499;29;20061;-86
2023/09/05 08:57:05;;;;;;;0.15;0.15;;;;;;;;;;4951492;28;20131;-85
2023/09/05 08:59:32;;;;;;;4.77;3.93;;;;;;;;;;4947753;28;20115;-85
2023/09/05 09:02:00;;;;;;;6.80;6.25;;;;;;;;;;4947607;29;20126;-88
2023/09/05 09:04:34;;;;;;;28.70;26.02;;;;;;;;;;4953000;28;20055;-86
2023/09/05 09:07:04;;;;;;;1.00;0.77;;;;;;;;;;4953092;28;20338;-85
2023/09/05 09:09:35;;;;;;;0.38;0.38;;;;;;;;;;4945588;29;20102;-85
2023/09/05 09:12:06;;;;;;;0.60;0.25;;;;;;;;;;4957210;28;20083;-85
2023/09/05 09:14:33;;;;;;;0.50;0.50;;;;;;;;;;4955161;29;20215;-85
2023/09/05 09:17:05;;;;;;;0.17;0.17;;;;;;;;;;4969396;28;20059;-85
2023/09/05 09:19:33;;;;;;;1.75;1.65;;;;;;;;;;4954466;29;20122;-85
2023/09/05 09:22:01;;;;;;;1.55;0.30;;;;;;;;;;4955515;29;20066;-85
2023/09/05 09:24:33;;;;;;;0.00;0.00;;;;;;;;;;4955646;28;20077;-86
2023/09/05 09:27:02;;;;;;;0.00;0.00;;;;;;;;;;4951536;28;20071;-85
2023/09/05 09:29:30;;;;;;;14.05;12.93;;;;;;;;;;4951038;29;20416;-85
2023/09/05 09:32:06;;;;;;;0.47;0.47;;;;;;;;;;4951709;29;20059;-85
2023/09/05 09:34:40;;;;;;;1.42;1.38;;;;;;;;;;4954742;29;20043;-85
2023/09/05 09:37:09;;;;;;;0.47;0.28;;;;;;;;;;4952516;28;20444;-83
2023/09/05 09:39:36;;;;;;;0.00;0.00;;;;;;;;;;4944461;28;20126;-84
2023/09/05 09:42:04;;;;;;;0.77;0.40;;;;;;;;;;4952228;28;20055;-85
2023/09/05 09:44:33;;;;;;;0.17;0.17;;;;;;;;;;4955284;29;20039;-84
2023/09/05 09:47:01;;;;;;;0.90;0.82;;;;;;;;;;4953999;29;20051;-85
2023/09/05 09:49:29;;;;;;;0.95;0.95;;;;;;;;;;4955518;29;20051;-84
2023/09/05 09:51:57;;;;;;;0.77;0.77;;;;;;;;;;4947729;29;20134;-84
2023/09/05 09:54:31;;;;;;;3.53;3.38;;;;;;;;;;4955994;29;20078;-84
2023/09/05 09:57:00;;;;;;;0.70;0.70;;;;;;;;;;4955274;29;20069;-84
2023/09/05 09:59:35;;;;;;;0.32;0.32;;;;;;;;;;4951412;29;20059;-86
2023/09/05 10:02:04;;;;;;;0.25;0.25;;;;;;;;;;4959036;28;20136;-84
2023/09/05 10:04:33;;;;;;;0.22;0.22;;;;;;;;;;4975066;28;20615;-84
2023/09/05 10:07:02;;;;;;;0.28;0.28;;;;;;;;;;4963993;29;20114;-84
2023/09/05 10:09:30;;;;;;;0.32;0.32;;;;;;;;;;4977143;28;20047;-85
2023/09/05 10:12:05;;;;;;;1.35;0.52;;;;;;;;;;4979190;28;20036;-84
2023/09/05 10:14:34;;;;;;;0.32;0.32;;;;;;;;;;4979139;28;20087;-85
2023/09/05 10:17:02;;;;;;;2.05;1.95;;;;;;;;;;4970405;28;20050;-87
2023/09/05 10:19:30;;;;;;;0.60;0.57;;;;;;;;;;4978796;28;20055;-85
2023/09/05 10:21:58;;;;;;;1.13;1.13;;;;;;;;;;4991458;28;20043;-84
2023/09/05 10:24:27;;;;;;;0.60;0.60;;;;;;;;;;4974578;29;20138;-83
2023/09/05 10:26:54;;;;;;;0.65;0.65;;;;;;;;;;4956296;29;20094;-84
2023/09/05 10:29:32;;;;;;;6.75;6.22;;;;;;;;;;4941591;29;20442;-85
2023/09/05 10:32:00;;;;;;;1.00;0.52;;;;;;;;;;4935242;29;20070;-85
2023/09/05 10:34:51;;;;;;;1.02;0.98;;;;;;;;;;4936566;29;20071;-83
2023/09/05 10:37:21;;;;;;;28.73;18.40;;;;;;;;;;4950680;29;20043;-88
2023/09/05 10:39:49;;;;;;;;;;;;;;;;;;4946962;29;20051;-85
2023/09/05 10:42:17;;;;;;;0.73;0.68;;;;;;;;;;4954683;28;19930;-85
2023/09/05 10:44:47;;;;;;;9.90;9.25;;;;;;;;;;4940240;29;20063;-85
2023/09/05 10:47:24;;;;;;;0.63;0.63;;;;;;;;;;4934681;29;20248;-85
2023/09/05 10:49:57;;;;;;;0.60;0.60;;;;;;;;;;4936937;29;20056;-84
2023/09/05 10:52:27;;;;;;;0.20;0.20;;;;;;;;;;4944096;29;20051;-85
2023/09/05 10:54:54;;;;;;;2.80;2.60;;;;;;;;;;4934095;29;20067;-86
2023/09/05 10:57:38;;;;;;;40.03;24.75;;;;;;;;;;4934379;29;20107;-86
2023/09/05 11:00:17;;;;;;;0.45;0.45;;;;;;;;;;4950822;28;20058;-84
2023/09/05 11:02:46;;;;;;;2.08;1.98;;;;;;;;;;4978451;28;20035;-83
2023/09/05 11:05:18;;;;;;;0.75;0.75;;;;;;;;;;4967563;28;20059;-85
2023/09/05 11:07:46;;;;;;;58.30;52.42;;;;;;;;;;4963902;28;20054;-85
2023/09/05 11:10:26;;;;;;;0.73;0.73;;;;;;;;;;4965882;29;20406;-86
2023/09/05 11:12:54;;;;;;;4.90;4.43;;;;;;;;;;4953637;29;20494;-84
2023/09/05 11:15:29;;;;;;;0.40;0.40;;;;;;;;;;4953494;29;20046;-85
2023/09/05 11:18:05;;;;;;;7.55;6.97;;;;;;;;;;4938947;29;20052;-85
2023/09/05 11:20:40;;;;;;;1.63;1.52;;;;;;;;;;4936898;29;20043;-85
2023/09/05 11:23:27;;;;;;;84.95;76.75;;;;;;;;;;4935692;29;20056;-85
2023/09/05 11:25:56;;;;;;;0.43;0.43;;;;;;;;;;4940336;28;20126;-83
2023/09/05 11:28:24;;;;;;;0.65;0.65;;;;;;;;;;4940770;29;20051;-84
2023/09/05 11:30:57;;;;;;;1.55;0.73;;;;;;;;;;4941210;29;20055;-84
2023/09/05 11:33:26;;;;;;;0.20;0.20;;;;;;;;;;4949157;29;20052;-85
2023/09/05 11:35:54;;;;;;;0.00;0.00;;;;;;;;;;4934121;29;20052;-84
2023/09/05 11:38:23;;;;;;;0.38;0.38;;;;;;;;;;4940882;29;20126;-84
2023/09/05 11:40:54;;;;;;;0.28;0.15;;;;;;;;;;4943043;28;20050;-85
2023/09/05 11:43:23;;;;;;;0.38;0.30;;;;;;;;;;4946177;29;20130;-85
2023/09/05 11:45:56;;;;;;;0.00;0.00;;;;;;;;;;4939223;29;20447;-86
2023/09/05 11:48:28;;;;;;;0.77;0.77;;;;;;;;;;4940316;29;20148;-85
2023/09/05 11:50:56;;;;;;;0.98;0.98;;;;;;;;;;4949794;28;20047;-84
2023/09/05 11:53:24;;;;;;;0.30;0.30;;;;;;;;;;4955575;29;20050;-84
2023/09/05 11:55:52;;;;;;;13.43;12.35;;;;;;;;;;4958396;29;20051;-86
2023/09/05 11:58:20;;;;;;;0.40;0.40;;;;;;;;;;4951909;28;20494;-84
2023/09/05 12:00:50;;;;;;;0.20;0.20;;;;;;;;;;4950876;29;20077;-85
2023/09/05 12:03:18;;;;;;;0.73;0.73;;;;;;;;;;4955157;29;20079;-86
2023/09/05 12:05:51;;;;;;;0.00;0.00;;;;;;;;;;4956198;28;20058;-85
2023/09/05 12:08:20;;;;;;;0.17;0.17;;;;;;;;;;4970803;28;20047;-85
2023/09/05 12:11:03;;;;;;;6.13;1.98;;;;;;;;;;4957105;29;20074;-85
2023/09/05 12:13:38;;;;;;;0.82;0.82;;;;;;;;;;4961437;28;20039;-85
2023/09/05 12:16:09;;;;;;;2.80;2.63;;;;;;;;;;4952654;29;20075;-85
2023/09/05 12:18:40;;;;;;;351.60;320.33;;;;;;;;;;4970452;28;20429;-85
2023/09/05 12:21:13;;;;;;;21.42;16.00;;;;;;;;;;4955842;28;20043;-85
2023/09/05 12:23:41;;;;;;;0.10;0.10;;;;;;;;;;4956228;28;20051;-85
2023/09/05 12:26:08;;;;;;;0.20;0.20;;;;;;;;;;4953761;29;20059;-85
2023/09/05 12:28:36;;;;;;;1.67;0.32;;;;;;;;;;4949542;29;20075;-85
2023/09/05 12:31:10;;;;;;;0.93;0.85;;;;;;;;;;4949327;29;20525;-86
2023/09/05 12:33:38;;;;;;;58.33;51.72;;;;;;;;;;4945942;29;20058;-85
2023/09/05 12:36:05;;;;;;;0.65;0.65;;;;;;;;;;4942584;29;20494;-86
2023/09/05 12:38:33;;;;;;;0.10;0.00;;;;;;;;;;4953805;29;20059;-85
2023/09/05 12:41:01;;;;;;;0.10;0.10;;;;;;;;;;4954632;29;20110;-86
2023/09/05 12:43:29;;;;;;;6.15;5.72;;;;;;;;;;4947033;29;20583;-84
2023/09/05 12:45:56;;;;;;;1.55;1.10;;;;;;;;;;4953714;29;20109;-84
2023/09/05 12:48:27;;;;;;;0.22;0.10;;;;;;;;;;4945365;29;20082;-84
2023/09/05 12:50:55;;;;;;;0.28;0.28;;;;;;;;;;4953149;29;20102;-86
2023/09/05 12:53:22;;;;;;;0.20;0.20;;;;;;;;;;4952761;29;20054;-86
2023/09/05 12:55:50;;;;;;;0.50;0.50;;;;;;;;;;4958276;29;20051;-86
2023/09/05 12:58:17;;;;;;;0.63;0.63;;;;;;;;;;4943487;28;20051;-85
2023/09/05 13:00:44;;;;;;;0.43;0.43;;;;;;;;;;4958227;28;20063;-86
2023/09/05 13:03:13;;;;;;;0.10;0.10;;;;;;;;;;4954488;29;20043;-85
2023/09/05 13:05:41;;;;;;;0.47;0.40;;;;;;;;;;4954875;29;20122;-85
2023/09/05 13:08:10;;;;;;;0.10;0.10;;;;;;;;;;4952099;29;20137;-86
2023/09/05 13:10:38;;;;;;;0.00;0.00;;;;;;;;;;4952985;29;20054;-87
2023/09/05 13:13:07;;;;;;;0.38;0.38;;;;;;;;;;4952904;29;20308;-86
2023/09/05 13:15:35;;;;;;;0.40;0.40;;;;;;;;;;4946288;29;20505;-86
2023/09/05 13:18:03;;;;;;;0.30;0.30;;;;;;;;;;4945348;28;20048;-85
2023/09/05 13:20:33;;;;;;;0.10;0.10;;;;;;;;;;4956479;29;20050;-86
2023/09/05 13:23:00;;;;;;;0.03;0.03;;;;;;;;;;4957013;29;20047;-86
2023/09/05 13:25:32;;;;;;;0.00;0.00;;;;;;;;;;4947409;29;20047;-86
2023/09/05 13:28:01;;;;;;;0.17;0.17;;;;;;;;;;4952092;29;20063;-86
2023/09/05 13:30:31;;;;;;;0.20;0.20;;;;;;;;;;4956531;29;20075;-85
2023/09/05 13:32:58;;;;;;;0.15;0.15;;;;;;;;;;4954682;29;20043;-86
2023/09/05 13:35:26;;;;;;;0.00;0.00;;;;;;;;;;4954867;28;20047;-86
2023/09/05 13:37:53;;;;;;;0.55;0.55;;;;;;;;;;4954042;29;20047;-85
2023/09/05 13:40:21;;;;;;;0.40;0.40;;;;;;;;;;4964360;28;20048;-85
2023/09/05 13:42:48;;;;;;;1.63;1.08;;;;;;;;;;4957099;29;20055;-85
2023/09/05 13:45:16;;;;;;;3.80;0.98;;;;;;;;;;4951622;29;20038;-86
2023/09/05 13:47:43;;;;;;;0.30;0.30;;;;;;;;;;4952755;28;20047;-87
2023/09/05 13:50:12;;;;;;;0.77;0.77;;;;;;;;;;4943974;28;20059;-84
2023/09/05 13:52:39;;;;;;;0.65;0.65;;;;;;;;;;4945963;29;20062;-84
2023/09/05 13:55:07;;;;;;;6.20;5.78;;;;;;;;;;4943183;29;20694;-85
2023/09/05 13:57:34;;;;;;;0.55;0.25;;;;;;;;;;4944799;29;20129;-85
2023/09/05 14:00:02;;;;;;;0.20;0.20;;;;;;;;;;4944398;28;20047;-85
2023/09/05 14:02:38;;;;;;;0.10;0.10;;;;;;;;;;4930857;28;20074;-85
2023/09/05 14:05:05;;;;;;;0.20;0.20;;;;;;;;;;4947585;29;20505;-86
2023/09/05 14:07:33;;;;;;;0.20;0.20;;;;;;;;;;4942718;29;20425;-86
2023/09/05 14:10:01;;;;;;;7.28;6.63;;;;;;;;;;4938715;29;20043;-85
2023/09/05 14:12:28;;;;;;;0.20;0.20;;;;;;;;;;4938505;29;20227;-84
2023/09/05 14:14:55;;;;;;;0.55;0.55;;;;;;;;;;4953609;28;20696;-84
2023/09/05 14:17:23;;;;;;;0.20;0.20;;;;;;;;;;4948222;29;20066;-85
2023/09/05 14:19:52;;;;;;;0.10;0.10;;;;;;;;;;4950120;29;20045;-86
2023/09/05 14:22:20;;;;;;;0.20;0.20;;;;;;;;;;4943129;29;20383;-86
2023/09/05 14:24:47;;;;;;;1.85;0.68;;;;;;;;;;4954006;29;20549;-85
2023/09/05 14:27:14;;;;;;;0.00;0.00;;;;;;;;;;4942203;29;20320;-86
2023/09/05 14:29:42;;;;;;;0.10;0.10;;;;;;;;;;4941388;29;20417;-85
2023/09/05 14:32:09;;;;;;;0.50;0.50;;;;;;;;;;4951087;28;20059;-85
2023/09/05 14:34:37;;;;;;;0.20;0.20;;;;;;;;;;4952391;29;20083;-85
2023/09/05 14:37:04;;;;;;;0.00;0.00;;;;;;;;;;4971961;28;20095;-84
2023/09/05 14:39:32;;;;;;;0.10;0.10;;;;;;;;;;4973205;28;20107;-84
2023/09/05 14:42:01;;;;;;;0.43;0.43;;;;;;;;;;4973240;28;20035;-85
2023/09/05 14:44:28;;;;;;;1.77;1.70;;;;;;;;;;4971387;28;20063;-85
2023/09/05 14:46:56;;;;;;;0.20;0.20;;;;;;;;;;4962046;28;20074;-85
2023/09/05 14:49:24;;;;;;;0.20;0.20;;;;;;;;;;4944610;29;20055;-86
2023/09/05 14:51:52;;;;;;;0.00;0.00;;;;;;;;;;4952874;29;20114;-86
2023/09/05 14:54:19;;;;;;;0.40;0.40;;;;;;;;;;4945435;28;20197;-86
2023/09/05 14:56:50;;;;;;;0.43;0.43;;;;;;;;;;4949951;29;20564;-86